Time;durP1;ratioP1;P1;durP2;ratioP2;P2;SDS_P1;SDS_P2;PMS_P1;PMS_P2;Temp;Humidity;BMP_temperature;BMP_pressure;BME280_temperature;BME280_humidity;BME280_pressure;Samples;Min_cycle;Max_cycle;Signal;HPM_P1;HPM_P2
2021/05/25 00:00:25;;;;;;;0.63;0.63;;;10.60;88.30;;;;;;5054381;28;20029;-80
2021/05/25 00:02:52;;;;;;;0.73;0.73;;;10.60;88.30;;;;;;5054305;28;20448;-80
2021/05/25 00:05:21;;;;;;;0.50;0.50;;;10.50;88.40;;;;;;5054485;28;20025;-79
2021/05/25 00:07:47;;;;;;;0.60;0.60;;;10.50;88.40;;;;;;5054240;28;20059;-80
2021/05/25 00:10:15;;;;;;;1.30;1.20;;;10.50;88.40;;;;;;5053980;28;20056;-79
2021/05/25 00:12:40;;;;;;;0.70;0.70;;;10.50;88.50;;;;;;5054319;28;20025;-78
2021/05/25 00:15:17;;;;;;;0.77;0.70;;;10.50;88.50;;;;;;5054528;28;20104;-79
2021/05/25 00:17:42;;;;;;;0.50;0.50;;;10.40;88.50;;;;;;5054164;28;20017;-78
2021/05/25 00:20:10;;;;;;;1.15;0.93;;;10.40;88.50;;;;;;5053983;28;20082;-78
2021/05/25 00:22:36;;;;;;;0.85;0.80;;;10.50;88.60;;;;;;5053769;28;20040;-78
2021/05/25 00:25:02;;;;;;;0.80;0.80;;;10.50;88.60;;;;;;5053368;28;20041;-79
2021/05/25 00:27:28;;;;;;;0.88;0.88;;;10.50;88.60;;;;;;5053752;28;20017;-78
2021/05/25 00:29:54;;;;;;;0.93;0.85;;;10.40;88.60;;;;;;5053909;28;20083;-79
2021/05/25 00:32:19;;;;;;;3.05;1.17;;;10.40;88.70;;;;;;5053884;28;20029;-79
2021/05/25 00:34:45;;;;;;;0.70;0.70;;;10.40;88.80;;;;;;5035220;28;20021;-78
2021/05/25 00:37:10;;;;;;;0.60;0.60;;;10.40;88.80;;;;;;5035797;28;20484;-79
2021/05/25 00:39:36;;;;;;;0.77;0.77;;;10.40;88.80;;;;;;5053246;28;20108;-79
2021/05/25 00:42:02;;;;;;;1.10;0.80;;;10.40;88.80;;;;;;5053645;28;20017;-79
2021/05/25 00:44:28;;;;;;;0.60;0.60;;;10.40;88.70;;;;;;5053407;28;20024;-79
2021/05/25 00:46:53;;;;;;;1.55;1.45;;;10.40;88.70;;;;;;5053454;28;20028;-78
2021/05/25 00:49:19;;;;;;;1.10;1.00;;;10.40;88.60;;;;;;5053486;28;20025;-78
2021/05/25 00:51:45;;;;;;;0.80;0.80;;;10.40;88.60;;;;;;5053561;28;20424;-79
2021/05/25 00:54:11;;;;;;;0.82;0.70;;;10.40;88.60;;;;;;5035109;28;20428;-79
2021/05/25 00:56:37;;;;;;;0.95;0.80;;;10.40;88.70;;;;;;5035219;28;20017;-79
2021/05/25 00:59:03;;;;;;;1.38;0.82;;;10.40;88.70;;;;;;5035535;28;20079;-79
2021/05/25 01:01:28;;;;;;;0.70;0.70;;;10.40;88.80;;;;;;5053403;28;20021;-79
2021/05/25 01:03:55;;;;;;;1.00;0.60;;;10.40;88.80;;;;;;5053442;28;20064;-79
2021/05/25 01:06:21;;;;;;;0.95;0.80;;;10.40;88.70;;;;;;5053259;28;20074;-77
2021/05/25 01:08:47;;;;;;;0.75;0.70;;;10.30;88.80;;;;;;5052622;28;20033;-79
2021/05/25 01:11:14;;;;;;;1.25;0.75;;;10.30;88.90;;;;;;5035316;28;20058;-79
2021/05/25 01:13:53;;;;;;;0.95;0.80;;;10.30;89.00;;;;;;5053156;28;20500;-80
2021/05/25 01:16:21;;;;;;;0.90;0.75;;;10.30;89.00;;;;;;5053003;28;20025;-78
2021/05/25 01:18:47;;;;;;;1.02;0.60;;;10.30;89.00;;;;;;5035209;28;20480;-78
2021/05/25 01:21:13;;;;;;;0.93;0.85;;;10.20;89.00;;;;;;5053164;28;20083;-79
2021/05/25 01:23:40;;;;;;;0.90;0.85;;;10.20;89.10;;;;;;5034665;28;20434;-78
2021/05/25 01:26:06;;;;;;;1.20;1.10;;;10.20;89.20;;;;;;5053081;28;20036;-79
2021/05/25 01:28:33;;;;;;;1.35;1.00;;;10.20;89.30;;;;;;5052971;28;20485;-80
2021/05/25 01:31:00;;;;;;;0.90;0.90;;;10.10;89.40;;;;;;5053067;28;20021;-79
2021/05/25 01:33:28;;;;;;;0.65;0.65;;;10.10;89.50;;;;;;5052982;28;20091;-79
2021/05/25 01:35:54;;;;;;;1.48;1.10;;;10.10;89.50;;;;;;5052382;28;20043;-77
2021/05/25 01:38:20;;;;;;;0.80;0.80;;;10.00;89.40;;;;;;5034960;28;20102;-78
2021/05/25 01:40:46;;;;;;;0.70;0.70;;;10.00;89.40;;;;;;5052957;28;20420;-79
2021/05/25 01:43:13;;;;;;;0.93;0.93;;;10.00;89.60;;;;;;5035026;28;20029;-79
2021/05/25 01:45:39;;;;;;;0.77;0.60;;;9.90;89.60;;;;;;5052847;28;20021;-79
2021/05/25 01:48:06;;;;;;;0.60;0.60;;;10.00;89.60;;;;;;5039572;28;20029;-77
2021/05/25 01:50:34;;;;;;;0.70;0.70;;;9.90;89.50;;;;;;5056777;28;20001;-76
2021/05/25 01:53:04;;;;;;;0.98;0.88;;;9.90;89.50;;;;;;5057252;28;20017;-79
2021/05/25 01:55:31;;;;;;;0.90;0.90;;;9.80;89.50;;;;;;5039045;28;20060;-77
2021/05/25 01:58:04;;;;;;;0.50;0.50;;;9.80;89.60;;;;;;5057042;28;20017;-78
2021/05/25 02:00:30;;;;;;;0.65;0.65;;;9.80;89.60;;;;;;5056891;28;20033;-79
2021/05/25 02:02:56;;;;;;;0.65;0.65;;;9.80;89.50;;;;;;5056601;28;20477;-77
2021/05/25 02:05:22;;;;;;;0.80;0.80;;;9.80;89.60;;;;;;5056343;28;20029;-79
2021/05/25 02:07:50;;;;;;;0.70;0.70;;;9.80;89.60;;;;;;5056639;28;20166;-78
2021/05/25 02:10:26;;;;;;;0.68;0.68;;;9.70;89.60;;;;;;5056599;28;20033;-78
2021/05/25 02:12:54;;;;;;;0.52;0.52;;;9.80;89.70;;;;;;5056415;28;20079;-76
2021/05/25 02:15:19;;;;;;;0.60;0.60;;;9.70;89.60;;;;;;5056349;28;20028;-78
2021/05/25 02:17:45;;;;;;;0.70;0.50;;;9.70;89.60;;;;;;5056381;28;20029;-78
2021/05/25 02:20:11;;;;;;;0.40;0.40;;;9.70;89.50;;;;;;5055912;28;20508;-79
2021/05/25 02:22:37;;;;;;;0.50;0.50;;;9.70;89.60;;;;;;5056198;28;20096;-79
2021/05/25 02:25:04;;;;;;;1.00;0.70;;;9.70;89.60;;;;;;5056084;28;20049;-80
2021/05/25 02:27:29;;;;;;;0.40;0.40;;;9.70;89.50;;;;;;5056032;28;20032;-78
2021/05/25 02:29:55;;;;;;;0.65;0.55;;;9.70;89.50;;;;;;5055940;28;20021;-77
2021/05/25 02:32:21;;;;;;;0.50;0.50;;;9.60;89.50;;;;;;5056064;28;20055;-77
2021/05/25 02:34:46;;;;;;;0.30;0.30;;;9.60;89.60;;;;;;5055480;28;20100;-77
2021/05/25 02:37:12;;;;;;;0.55;0.55;;;9.50;89.70;;;;;;5055955;28;20052;-77
2021/05/25 02:39:37;;;;;;;0.52;0.52;;;9.50;89.80;;;;;;5037970;28;20385;-77
2021/05/25 02:42:04;;;;;;;0.47;0.45;;;9.40;89.80;;;;;;5055740;28;20036;-78
2021/05/25 02:44:29;;;;;;;0.40;0.40;;;9.40;89.90;;;;;;5037715;28;20396;-78
2021/05/25 02:46:55;;;;;;;0.20;0.20;;;9.40;89.80;;;;;;5055811;28;20025;-79
2021/05/25 02:49:20;;;;;;;0.50;0.50;;;9.50;89.80;;;;;;5055299;28;20036;-78
2021/05/25 02:51:46;;;;;;;0.43;0.43;;;9.40;89.70;;;;;;5055444;28;20014;-76
2021/05/25 02:54:14;;;;;;;0.57;0.57;;;9.40;89.70;;;;;;5055669;28;20532;-77
2021/05/25 02:56:40;;;;;;;0.73;0.45;;;9.40;89.80;;;;;;5037769;28;20025;-77
2021/05/25 02:59:05;;;;;;;0.47;0.47;;;9.40;89.90;;;;;;5054575;28;20031;-77
2021/05/25 03:01:31;;;;;;;0.50;0.50;;;9.30;89.80;;;;;;5055533;28;20020;-78
2021/05/25 03:03:57;;;;;;;0.40;0.40;;;9.30;89.90;;;;;;5054869;28;20082;-78
2021/05/25 03:06:22;;;;;;;0.73;0.73;;;9.20;89.90;;;;;;5055418;28;20017;-77
2021/05/25 03:08:47;;;;;;;0.40;0.40;;;9.20;90.00;;;;;;5055325;28;20025;-79
2021/05/25 03:11:13;;;;;;;1.08;0.50;;;9.10;90.00;;;;;;5055268;28;20025;-78
2021/05/25 03:13:39;;;;;;;0.38;0.38;;;9.10;90.00;;;;;;5055321;28;20052;-78
2021/05/25 03:16:04;;;;;;;0.43;0.43;;;9.10;90.00;;;;;;5037355;28;20441;-77
2021/05/25 03:18:30;;;;;;;0.98;0.55;;;9.00;90.00;;;;;;5054526;28;20033;-78
2021/05/25 03:20:56;;;;;;;0.40;0.40;;;9.00;90.10;;;;;;5055263;28;20025;-78
2021/05/25 03:23:21;;;;;;;0.30;0.30;;;9.00;90.10;;;;;;5054911;28;20473;-78
2021/05/25 03:25:49;;;;;;;0.30;0.30;;;9.00;90.10;;;;;;5054885;28;20076;-78
2021/05/25 03:28:15;;;;;;;0.80;0.60;;;8.90;90.00;;;;;;5037076;28;20562;-77
2021/05/25 03:30:42;;;;;;;0.57;0.32;;;8.90;90.00;;;;;;5054872;28;20021;-77
2021/05/25 03:33:08;;;;;;;0.50;0.50;;;8.90;90.00;;;;;;5036391;28;20017;-76
2021/05/25 03:35:35;;;;;;;0.45;0.45;;;8.80;90.10;;;;;;5054690;28;20048;-77
2021/05/25 03:38:00;;;;;;;0.82;0.55;;;8.80;90.10;;;;;;5054774;28;20067;-76
2021/05/25 03:40:26;;;;;;;0.70;0.70;;;8.80;90.10;;;;;;5054855;28;20473;-77
2021/05/25 03:42:54;;;;;;;0.40;0.35;;;8.80;90.00;;;;;;5054546;28;20021;-76
2021/05/25 03:45:21;;;;;;;0.50;0.47;;;8.80;90.00;;;;;;5054527;28;20471;-77
2021/05/25 03:47:47;;;;;;;0.35;0.35;;;8.80;90.00;;;;;;5053395;28;20033;-77
2021/05/25 03:50:13;;;;;;;0.40;0.40;;;8.90;90.00;;;;;;5054573;28;20025;-78
2021/05/25 03:52:45;;;;;;;0.73;0.73;;;8.90;90.00;;;;;;5054530;28;20028;-77
2021/05/25 04:00:51;;;;;;;0.45;0.45;;;8.90;89.90;;;;;;5054499;28;20052;-78
2021/05/25 04:03:16;;;;;;;0.57;0.57;;;8.90;90.00;;;;;;5054327;28;20033;-76
2021/05/25 04:05:42;;;;;;;0.40;0.40;;;8.80;90.00;;;;;;5054077;28;20492;-77
2021/05/25 04:08:09;;;;;;;0.73;0.57;;;8.90;90.00;;;;;;5054297;28;20021;-78
2021/05/25 04:10:35;;;;;;;0.52;0.52;;;8.90;90.00;;;;;;5053100;28;20025;-77
2021/05/25 04:13:01;;;;;;;0.40;0.40;;;8.90;90.00;;;;;;5036098;28;20017;-77
2021/05/25 04:15:27;;;;;;;0.77;0.60;;;9.00;90.00;;;;;;5035642;28;20116;-77
2021/05/25 04:17:54;;;;;;;0.52;0.52;;;9.10;89.90;;;;;;5036359;28;20111;-77
2021/05/25 04:20:20;;;;;;;0.43;0.43;;;9.10;89.90;;;;;;5054300;28;20029;-77
2021/05/25 04:22:46;;;;;;;0.50;0.50;;;9.10;89.80;;;;;;5035919;28;20079;-76
2021/05/25 04:25:15;;;;;;;0.40;0.40;;;9.10;89.90;;;;;;5032207;28;20049;-77
2021/05/25 04:27:40;;;;;;;0.40;0.40;;;9.10;89.90;;;;;;5033813;28;20037;-77
2021/05/25 04:30:08;;;;;;;0.30;0.30;;;9.10;90.00;;;;;;5033438;28;20043;-77
2021/05/25 04:32:34;;;;;;;0.38;0.38;;;9.10;90.00;;;;;;5033788;28;20022;-76
2021/05/25 04:35:00;;;;;;;0.73;0.73;;;9.10;89.90;;;;;;5033851;28;20033;-78
2021/05/25 04:37:26;;;;;;;0.73;0.73;;;9.10;89.90;;;;;;5033604;28;20021;-78
2021/05/25 04:39:51;;;;;;;0.85;0.50;;;9.20;90.00;;;;;;5033722;28;20377;-77
2021/05/25 04:42:17;;;;;;;0.50;0.50;;;9.20;90.00;;;;;;5033575;28;20115;-77
2021/05/25 04:44:43;;;;;;;0.38;0.38;;;9.20;90.00;;;;;;5033051;28;20064;-77
2021/05/25 04:47:08;;;;;;;0.60;0.60;;;9.20;90.00;;;;;;5033606;28;20373;-78
2021/05/25 04:49:36;;;;;;;0.85;0.50;;;9.20;90.00;;;;;;5033584;28;20021;-77
2021/05/25 04:52:02;;;;;;;0.80;0.70;;;9.20;90.00;;;;;;5033450;28;20099;-78
2021/05/25 04:54:28;;;;;;;0.40;0.40;;;9.30;90.00;;;;;;5033455;28;20456;-77
2021/05/25 04:56:55;;;;;;;0.50;0.50;;;9.40;90.00;;;;;;5033397;28;20561;-77
2021/05/25 04:59:20;;;;;;;0.50;0.50;;;9.40;89.90;;;;;;5031648;28;20083;-77
2021/05/25 05:01:46;;;;;;;0.70;0.70;;;9.50;89.70;;;;;;5033328;28;20029;-77
2021/05/25 05:04:12;;;;;;;0.60;0.60;;;9.50;89.80;;;;;;5033332;28;20061;-76
2021/05/25 05:06:37;;;;;;;0.70;0.68;;;9.50;89.80;;;;;;5033200;28;20010;-77
2021/05/25 05:09:03;;;;;;;0.70;0.70;;;9.50;89.80;;;;;;5031973;28;20465;-77
2021/05/25 05:11:29;;;;;;;0.60;0.60;;;9.50;89.90;;;;;;5033035;28;20026;-78
2021/05/25 05:13:54;;;;;;;0.82;0.70;;;9.50;89.90;;;;;;5032845;28;20105;-77
2021/05/25 05:16:20;;;;;;;0.50;0.45;;;9.40;90.00;;;;;;5033126;28;20412;-76
2021/05/25 05:18:45;;;;;;;0.50;0.50;;;9.40;90.00;;;;;;5033166;28;20508;-76
2021/05/25 05:21:11;;;;;;;0.80;0.80;;;9.50;90.00;;;;;;5032774;28;20025;-76
2021/05/25 05:23:36;;;;;;;1.00;1.00;;;9.50;90.00;;;;;;5032901;28;20372;-78
2021/05/25 05:26:04;;;;;;;0.85;0.80;;;9.50;90.00;;;;;;5048320;28;20098;-75
2021/05/25 05:28:30;;;;;;;0.70;0.65;;;9.50;90.00;;;;;;5052438;28;20013;-78
2021/05/25 05:30:55;;;;;;;0.70;0.70;;;9.50;90.30;;;;;;5034957;28;20031;-77
2021/05/25 05:33:21;;;;;;;0.70;0.70;;;9.60;90.00;;;;;;5052904;28;20473;-77
2021/05/25 05:35:47;;;;;;;1.13;1.02;;;9.70;89.90;;;;;;5052642;28;20017;-77
2021/05/25 05:38:13;;;;;;;1.25;0.90;;;9.80;89.90;;;;;;5035458;28;20025;-77
2021/05/25 05:40:39;;;;;;;0.55;0.55;;;9.80;89.80;;;;;;5035005;28;20025;-77
2021/05/25 05:43:04;;;;;;;0.82;0.80;;;9.90;89.80;;;;;;5052251;28;20039;-78
2021/05/25 05:45:30;;;;;;;0.52;0.52;;;9.90;89.80;;;;;;5052774;28;20029;-78
2021/05/25 05:47:55;;;;;;;1.05;0.77;;;10.00;89.70;;;;;;5052026;28;20071;-78
2021/05/25 05:50:21;;;;;;;0.85;0.85;;;9.90;89.70;;;;;;5052752;28;20079;-78
2021/05/25 05:52:47;;;;;;;0.60;0.60;;;9.90;89.90;;;;;;5042791;28;20017;-77
2021/05/25 05:55:13;;;;;;;0.65;0.65;;;10.00;89.90;;;;;;5052379;28;20017;-78
2021/05/25 05:57:39;;;;;;;0.63;0.60;;;10.00;89.90;;;;;;5051853;28;20040;-78
2021/05/25 06:00:07;;;;;;;1.02;0.90;;;10.10;89.90;;;;;;5034720;28;20112;-78
2021/05/25 06:02:33;;;;;;;1.10;0.95;;;10.10;89.70;;;;;;5052977;28;20028;-77
2021/05/25 06:04:59;;;;;;;0.77;0.77;;;10.10;89.80;;;;;;5052484;28;20111;-78
2021/05/25 06:07:25;;;;;;;1.20;1.00;;;10.10;89.90;;;;;;5050398;28;20489;-79
2021/05/25 06:09:51;;;;;;;1.38;1.27;;;10.10;89.80;;;;;;5052584;28;20029;-78
2021/05/25 06:12:16;;;;;;;1.42;1.00;;;10.10;89.90;;;;;;5047783;28;20021;-77
2021/05/25 06:14:42;;;;;;;1.17;1.08;;;10.10;89.90;;;;;;5032307;28;20111;-78
2021/05/25 06:17:07;;;;;;;0.95;0.90;;;10.10;90.00;;;;;;5032493;28;20022;-79
2021/05/25 06:19:33;;;;;;;1.42;1.33;;;10.10;90.00;;;;;;5032451;28;20025;-77
2021/05/25 06:21:58;;;;;;;1.15;0.98;;;10.10;89.90;;;;;;5032465;28;20021;-76
2021/05/25 06:24:24;;;;;;;1.13;0.93;;;10.10;89.90;;;;;;5014614;28;20128;-77
2021/05/25 06:26:49;;;;;;;1.45;1.08;;;10.20;90.00;;;;;;5014326;28;20046;-78
2021/05/25 06:29:15;;;;;;;2.33;1.75;;;10.20;90.00;;;;;;5032135;28;20030;-79
2021/05/25 06:31:40;;;;;;;1.85;1.42;;;10.20;90.00;;;;;;5031099;28;20052;-78
2021/05/25 06:34:06;;;;;;;1.52;0.98;;;10.20;90.00;;;;;;5034687;28;20060;-80
2021/05/25 06:36:31;;;;;;;1.10;1.00;;;10.20;90.00;;;;;;5036032;28;20018;-79
2021/05/25 06:38:57;;;;;;;1.52;1.40;;;10.20;90.00;;;;;;5035907;28;20475;-77
2021/05/25 06:41:22;;;;;;;1.02;0.90;;;10.20;90.00;;;;;;5017877;28;20053;-77
2021/05/25 06:43:48;;;;;;;1.52;1.40;;;10.20;90.10;;;;;;5035808;28;20045;-77
2021/05/25 06:46:13;;;;;;;1.50;1.27;;;10.30;90.00;;;;;;5018098;28;20067;-77
2021/05/25 06:48:39;;;;;;;1.20;1.05;;;10.30;90.00;;;;;;5035773;28;20025;-75
2021/05/25 06:51:07;;;;;;;0.93;0.90;;;10.40;90.00;;;;;;5021816;28;20473;-75
2021/05/25 06:53:36;;;;;;;1.80;1.45;;;10.50;89.90;;;;;;5054722;28;20021;-76
2021/05/25 06:56:03;;;;;;;1.58;1.40;;;10.50;89.70;;;;;;5054967;28;20492;-75
2021/05/25 06:58:29;;;;;;;1.80;1.55;;;10.50;89.90;;;;;;5054470;28;20025;-75
2021/05/25 07:00:54;;;;;;;1.85;1.40;;;10.40;90.00;;;;;;5053721;28;20017;-75
2021/05/25 07:03:20;;;;;;;1.88;1.45;;;10.50;90.10;;;;;;5055168;28;20116;-75
2021/05/25 07:05:45;;;;;;;2.13;1.38;;;10.50;90.10;;;;;;5055530;28;20412;-75
2021/05/25 07:08:11;;;;;;;1.90;1.42;;;10.60;90.10;;;;;;5055417;28;20385;-76
2021/05/25 07:10:36;;;;;;;1.45;1.35;;;10.80;90.00;;;;;;5054832;28;20029;-76
2021/05/25 07:13:02;;;;;;;1.48;1.38;;;10.80;89.80;;;;;;5052989;28;20032;-75
2021/05/25 07:15:28;;;;;;;1.50;1.30;;;10.80;89.90;;;;;;5055039;28;20088;-75
2021/05/25 07:17:57;;;;;;;1.50;1.25;;;11.00;89.80;;;;;;5053875;28;20384;-75
2021/05/25 07:20:24;;;;;;;1.83;1.27;;;11.20;89.40;;;;;;5054876;28;20075;-73
2021/05/25 07:22:52;;;;;;;1.85;1.48;;;11.20;89.50;;;;;;5054927;28;20021;-76
2021/05/25 07:25:18;;;;;;;2.80;2.15;;;11.30;89.50;;;;;;5054130;28;20520;-75
2021/05/25 07:27:44;;;;;;;3.35;2.10;;;11.30;89.50;;;;;;5037104;28;20021;-74
2021/05/25 07:30:14;;;;;;;1.85;1.60;;;11.20;89.70;;;;;;5054474;28;20025;-75
2021/05/25 07:32:39;;;;;;;;;;;11.20;89.70;;;;;;5055100;28;20017;-75
2021/05/25 07:35:05;;;;;;;1.40;1.30;;;11.10;89.60;;;;;;5054647;28;19904;-76
2021/05/25 07:37:31;;;;;;;2.08;1.63;;;11.20;89.90;;;;;;5054808;28;20021;-74
2021/05/25 07:39:57;;;;;;;1.45;1.15;;;11.10;89.90;;;;;;5054324;28;20032;-74
2021/05/25 07:42:22;;;;;;;1.30;1.20;;;11.10;90.00;;;;;;5036924;28;20023;-74
2021/05/25 07:44:48;;;;;;;2.05;1.85;;;11.20;90.00;;;;;;5051449;28;20477;-73
2021/05/25 07:47:13;;;;;;;3.38;1.90;;;11.20;90.00;;;;;;5035967;28;20060;-73
2021/05/25 07:49:39;;;;;;;1.95;1.52;;;11.30;90.00;;;;;;5053908;28;20033;-73
2021/05/25 07:52:05;;;;;;;2.38;1.65;;;11.40;90.00;;;;;;5054664;28;20101;-75
2021/05/25 07:54:30;;;;;;;1.80;1.30;;;11.60;89.70;;;;;;5035921;28;20032;-75
2021/05/25 07:56:56;;;;;;;1.90;1.70;;;11.70;89.50;;;;;;5052100;28;20032;-73
2021/05/25 07:59:21;;;;;;;1.30;1.20;;;11.80;89.40;;;;;;5038290;28;20029;-75
2021/05/25 08:01:47;;;;;;;2.28;1.83;;;11.90;89.30;;;;;;5047546;28;20099;-76
2021/05/25 08:04:13;;;;;;;2.70;1.83;;;12.00;89.40;;;;;;5036088;28;20047;-75
2021/05/25 08:06:39;;;;;;;1.70;1.60;;;12.00;89.40;;;;;;5053985;28;20021;-75
2021/05/25 08:09:06;;;;;;;2.10;1.67;;;12.00;89.40;;;;;;5052489;28;20028;-76
2021/05/25 08:11:32;;;;;;;1.77;1.48;;;11.90;89.70;;;;;;5048089;28;20438;-75
2021/05/25 08:13:57;;;;;;;2.25;1.75;;;12.00;89.80;;;;;;5053864;28;20021;-76
2021/05/25 08:16:28;;;;;;;2.72;1.75;;;12.00;89.90;;;;;;5053773;28;20032;-75
2021/05/25 08:21:39;;;;;;;2.33;1.70;;;12.30;89.40;;;;;;5053613;28;20078;-75
2021/05/25 08:24:06;;;;;;;2.53;2.08;;;12.30;89.50;;;;;;5052985;28;20481;-74
2021/05/25 08:26:32;;;;;;;2.67;1.77;;;12.40;89.50;;;;;;5035623;28;20052;-75
2021/05/25 08:28:58;;;;;;;1.75;1.60;;;12.40;89.80;;;;;;5035579;28;20050;-74
2021/05/25 08:31:23;;;;;;;2.40;1.48;;;12.40;89.80;;;;;;5052657;28;20021;-73
2021/05/25 08:33:49;;;;;;;1.48;1.20;;;12.60;89.80;;;;;;5053449;28;20037;-73
2021/05/25 08:36:17;;;;;;;1.85;1.50;;;12.80;89.50;;;;;;5034230;28;20014;-75
2021/05/25 08:38:42;;;;;;;2.45;1.45;;;13.00;89.50;;;;;;5050771;28;20021;-74
2021/05/25 08:41:08;;;;;;;2.15;1.90;;;13.20;89.10;;;;;;5053354;28;20469;-76
2021/05/25 08:43:34;;;;;;;1.88;1.73;;;13.50;88.60;;;;;;5053264;28;20037;-75
2021/05/25 08:45:59;;;;;;;2.45;2.05;;;13.50;88.40;;;;;;5053436;28;20547;-76
2021/05/25 08:48:25;;;;;;;1.30;1.20;;;13.40;88.60;;;;;;5053351;28;20025;-75
2021/05/25 08:50:58;;;;;;;1.00;1.00;;;13.10;89.10;;;;;;5052879;28;20096;-75
2021/05/25 08:53:24;;;;;;;1.35;1.30;;;13.00;89.60;;;;;;5035259;28;20484;-73
2021/05/25 08:55:51;;;;;;;1.33;1.20;;;13.00;90.00;;;;;;5050736;28;20408;-75
2021/05/25 08:58:18;;;;;;;1.48;1.23;;;13.00;89.80;;;;;;5034056;28;20481;-73
2021/05/25 09:00:44;;;;;;;1.05;0.98;;;13.10;89.90;;;;;;5053020;28;20027;-74
2021/05/25 09:03:09;;;;;;;1.55;1.45;;;13.30;89.60;;;;;;5052923;28;20108;-74
2021/05/25 09:05:37;;;;;;;2.08;1.60;;;13.50;89.20;;;;;;5051545;28;20028;-74
2021/05/25 09:08:05;;;;;;;2.03;1.33;;;13.60;89.20;;;;;;5052736;28;20021;-73
2021/05/25 09:10:39;;;;;;;1.13;1.13;;;13.70;89.20;;;;;;5053086;28;20029;-74
2021/05/25 09:13:16;;;;;;;1.05;1.05;;;13.90;89.00;;;;;;5053208;28;20019;-75
2021/05/25 09:15:50;;;;;;;1.00;0.98;;;13.70;88.50;;;;;;5052968;28;20025;-75
2021/05/25 09:18:25;;;;;;;0.80;0.77;;;13.30;88.80;;;;;;5053377;28;20527;-75
2021/05/25 09:20:53;;;;;;;1.02;0.95;;;12.80;89.60;;;;;;5050798;28;20021;-77
2021/05/25 09:23:36;;;;;;;0.70;0.70;;;12.40;90.00;;;;;;5053034;28;20025;-75
2021/05/25 09:26:08;;;;;;;0.75;0.75;;;12.10;90.40;;;;;;5052616;28;20061;-76
2021/05/25 09:28:35;;;;;;;0.70;0.70;;;11.90;90.40;;;;;;5052835;28;20079;-76
2021/05/25 09:31:03;;;;;;;0.80;0.80;;;11.70;90.50;;;;;;5052990;28;20090;-75
2021/05/25 09:33:29;;;;;;;0.60;0.60;;;11.50;90.70;;;;;;5042057;28;20032;-75
2021/05/25 09:35:55;;;;;;;0.50;0.50;;;11.40;90.80;;;;;;5049712;28;20499;-74
2021/05/25 09:38:28;;;;;;;0.50;0.50;;;11.60;90.80;;;;;;5048644;28;20025;-75
2021/05/25 09:41:00;;;;;;;0.30;0.30;;;11.70;90.80;;;;;;5049927;28;20032;-77
2021/05/25 09:43:32;;;;;;;2.40;0.75;;;11.70;90.40;;;;;;5048454;28;20036;-76
2021/05/25 09:46:02;;;;;;;0.47;0.47;;;11.50;90.50;;;;;;5047605;28;20029;-77
2021/05/25 09:48:30;;;;;;;0.57;0.52;;;11.40;90.80;;;;;;5034461;28;20101;-76
2021/05/25 09:50:56;;;;;;;0.40;0.40;;;11.40;90.80;;;;;;5012670;28;20017;-76
2021/05/25 09:53:23;;;;;;;0.40;0.40;;;11.40;90.80;;;;;;5041777;28;20100;-76
2021/05/25 09:55:53;;;;;;;0.50;0.50;;;11.40;90.80;;;;;;5052091;28;20029;-77
2021/05/25 09:58:19;;;;;;;;;;;11.60;90.80;;;;;;5053009;28;20029;-74
2021/05/25 10:00:46;;;;;;;0.60;0.60;;;11.60;90.50;;;;;;5052255;28;19905;-74
2021/05/25 10:03:15;;;;;;;0.38;0.38;;;11.80;90.50;;;;;;5052507;28;20457;-75
2021/05/25 10:05:44;;;;;;;0.43;0.43;;;12.00;90.40;;;;;;5052190;28;20033;-76
2021/05/25 10:08:11;;;;;;;0.47;0.45;;;12.10;90.30;;;;;;5035802;28;20071;-76
2021/05/25 10:10:37;;;;;;;0.68;0.52;;;12.10;90.30;;;;;;5055070;28;20017;-76
2021/05/25 10:13:05;;;;;;;0.50;0.50;;;12.30;90.30;;;;;;5054707;28;20048;-79
2021/05/25 10:15:31;;;;;;;1.15;0.65;;;12.40;90.30;;;;;;5055146;28;20032;-78
2021/05/25 10:20:28;;;;;;;0.55;0.52;;;12.80;90.10;;;;;;5056516;28;20124;-77
2021/05/25 10:22:54;;;;;;;0.50;0.50;;;12.90;90.00;;;;;;5053367;28;20427;-77
2021/05/25 10:25:21;;;;;;;0.80;0.80;;;12.90;90.10;;;;;;5038111;28;20047;-78
2021/05/25 10:27:47;;;;;;;0.65;0.65;;;12.80;90.20;;;;;;5056315;28;20107;-77
2021/05/25 10:30:22;;;;;;;0.95;0.95;;;12.70;90.40;;;;;;5056039;28;20021;-78
2021/05/25 10:32:49;;;;;;;1.58;1.20;;;12.70;90.50;;;;;;5055746;28;20021;-80
2021/05/25 10:35:19;;;;;;;0.80;0.80;;;12.70;90.50;;;;;;5056042;28;20048;-77
2021/05/25 10:38:03;;;;;;;0.88;0.88;;;12.50;90.40;;;;;;5055965;28;20025;-78
2021/05/25 10:40:46;;;;;;;1.33;1.20;;;12.40;90.50;;;;;;5055938;28;20473;-76
2021/05/25 10:43:46;;;;;;;0.80;0.80;;;12.30;90.60;;;;;;5035678;28;20354;-77
2021/05/25 10:46:12;;;;;;;1.65;1.45;;;12.10;90.70;;;;;;5055560;28;20025;-77
2021/05/25 10:49:17;;;;;;;1.40;0.80;;;12.00;90.80;;;;;;5037305;28;20112;-77
2021/05/25 10:51:49;;;;;;;1.10;1.00;;;12.00;90.80;;;;;;5049257;28;20033;-78
2021/05/25 10:54:42;;;;;;;1.00;0.90;;;12.00;90.80;;;;;;5037579;28;20074;-76
2021/05/25 10:57:49;;;;;;;1.00;1.00;;;12.20;90.60;;;;;;5055790;28;20029;-78
2021/05/25 11:00:19;;;;;;;1.20;1.08;;;12.30;90.50;;;;;;5054063;28;20047;-78
2021/05/25 11:02:56;;;;;;;0.90;0.90;;;12.40;90.40;;;;;;5055204;28;20026;-76
2021/05/25 11:05:35;;;;;;;0.68;0.60;;;12.70;90.40;;;;;;5055328;28;20037;-76
2021/05/25 11:08:13;;;;;;;1.97;1.53;;;13.10;90.20;;;;;;5055672;28;20078;-78
2021/05/25 11:10:40;;;;;;;1.70;1.20;;;13.60;89.50;;;;;;5055529;28;20104;-76
2021/05/25 11:13:15;;;;;;;0.90;0.80;;;13.90;89.00;;;;;;5055484;28;20078;-77
2021/05/25 11:16:15;;;;;;;1.85;1.60;;;14.10;89.20;;;;;;5055172;28;20029;-78
2021/05/25 11:19:20;;;;;;;1.48;1.13;;;14.30;88.70;;;;;;5036768;28;20511;-75
2021/05/25 11:22:14;;;;;;;1.30;1.20;;;14.50;89.00;;;;;;5055110;28;20017;-75
2021/05/25 11:25:02;;;;;;;2.17;1.52;;;15.30;88.40;;;;;;5054890;28;20049;-76
2021/05/25 11:27:28;;;;;;;0.73;0.73;;;16.10;86.40;;;;;;5055156;28;20049;-77
2021/05/25 11:29:58;;;;;;;1.40;0.80;;;16.40;85.90;;;;;;5054987;28;20025;-80
2021/05/25 11:32:29;;;;;;;1.33;1.00;;;16.80;85.60;;;;;;5053776;28;20017;-76
2021/05/25 11:34:57;;;;;;;0.77;0.77;;;17.20;85.50;;;;;;5037062;28;20481;-75
2021/05/25 11:37:23;;;;;;;0.93;0.77;;;17.20;84.40;;;;;;5055067;28;20032;-76
2021/05/25 11:39:50;;;;;;;1.08;0.70;;;17.30;85.50;;;;;;5036999;28;20108;-75
2021/05/25 11:42:31;;;;;;;0.80;0.70;;;17.80;84.90;;;;;;5054723;28;20483;-76
2021/05/25 11:44:57;;;;;;;1.25;0.73;;;18.20;83.90;;;;;;5054527;28;20029;-76
2021/05/25 11:47:23;;;;;;;0.80;0.80;;;17.80;83.70;;;;;;5054794;28;20035;-76
2021/05/25 11:49:49;;;;;;;2.30;0.80;;;17.10;84.60;;;;;;5054611;28;20033;-76
2021/05/25 11:52:22;;;;;;;1.00;0.90;;;16.40;86.10;;;;;;5054646;28;20048;-76
2021/05/25 11:54:48;;;;;;;1.10;1.00;;;15.70;87.60;;;;;;5036663;28;20032;-76
2021/05/25 11:57:44;;;;;;;1.27;0.90;;;15.50;88.30;;;;;;5054388;28;20045;-76
2021/05/25 12:00:10;;;;;;;0.85;0.85;;;15.40;88.10;;;;;;5019995;28;20037;-75
2021/05/25 12:02:36;;;;;;;1.45;0.70;;;15.30;88.20;;;;;;5036517;28;20021;-74
2021/05/25 12:05:03;;;;;;;1.65;0.95;;;15.30;87.70;;;;;;5054342;28;20036;-80
2021/05/25 12:07:29;;;;;;;1.40;1.13;;;15.40;87.90;;;;;;5054035;28;20022;-75
2021/05/25 12:09:58;;;;;;;0.85;0.70;;;16.00;87.70;;;;;;5036385;28;20028;-76
2021/05/25 12:12:25;;;;;;;1.52;0.90;;;16.80;86.30;;;;;;5054133;28;20021;-76
2021/05/25 12:14:51;;;;;;;1.00;0.70;;;17.40;85.10;;;;;;5053687;28;20048;-75
2021/05/25 12:17:22;;;;;;;0.98;0.90;;;17.90;84.30;;;;;;5054243;28;20025;-77
2021/05/25 12:19:53;;;;;;;0.60;0.60;;;18.10;83.40;;;;;;5054205;28;20021;-75
2021/05/25 12:22:33;;;;;;;0.85;0.80;;;18.00;83.90;;;;;;5054148;28;20079;-77
2021/05/25 12:25:24;;;;;;;0.75;0.47;;;17.80;84.60;;;;;;5053818;28;20045;-76
2021/05/25 12:27:52;;;;;;;0.40;0.40;;;17.60;84.60;;;;;;5036175;28;20123;-78
2021/05/25 12:30:21;;;;;;;0.75;0.28;;;17.10;85.10;;;;;;5052767;28;20151;-76
2021/05/25 12:32:47;;;;;;;0.98;0.60;;;16.80;85.80;;;;;;5053939;28;20453;-79
2021/05/25 12:35:14;;;;;;;0.60;0.60;;;16.40;86.00;;;;;;5053861;28;20071;-80
2021/05/25 12:37:41;;;;;;;0.68;0.50;;;16.10;86.30;;;;;;5053583;28;20021;-79
2021/05/25 12:40:11;;;;;;;0.40;0.30;;;15.90;86.40;;;;;;5035842;28;20480;-78
2021/05/25 12:42:42;;;;;;;0.40;0.40;;;15.60;87.00;;;;;;5053724;28;20027;-78
2021/05/25 12:45:14;;;;;;;0.30;0.30;;;15.40;87.00;;;;;;5053276;28;20052;-80
2021/05/25 12:48:00;;;;;;;0.80;0.63;;;15.10;87.20;;;;;;5053596;28;20017;-78
2021/05/25 12:50:27;;;;;;;0.30;0.30;;;14.80;87.60;;;;;;5053528;28;20021;-78
2021/05/25 12:53:13;;;;;;;0.77;0.75;;;14.50;87.80;;;;;;5053500;28;20025;-80
2021/05/25 12:55:56;;;;;;;0.70;0.50;;;14.50;87.60;;;;;;5053506;28;20025;-78
2021/05/25 12:58:47;;;;;;;0.50;0.40;;;14.50;87.40;;;;;;5052928;28;20092;-78
2021/05/25 13:01:28;;;;;;;0.47;0.47;;;14.70;87.10;;;;;;5053317;28;20017;-80
2021/05/25 13:04:14;;;;;;;0.55;0.30;;;15.10;86.90;;;;;;5053362;28;20389;-78
2021/05/25 13:06:51;;;;;;;0.40;0.40;;;15.60;85.70;;;;;;5052408;28;20025;-77